Terminal Aerodrome Forecast
Issued by NWS

Home | Current Version | Previous Version | Text Only | Print | Product List | Glossary On
Versions: 1 2 3 4 5 6 7 8 9 10 11 12 13 14 15 16 17
000
FTUS45 KPSR 290520
TAFIWA
TAF
KIWA 290520Z 2906/3006 21010KT P6SM FEW100 SCT200
     FM290800 15006KT P6SM FEW100
     FM291800 26008KT P6SM SCT100
     FM292100 27013G20KT P6SM SCT100
     FM300300 24007KT P6SM FEW100
      AMD LTD TO CLD VIS AND WIND TIL 291300=

USA.gov is the U.S. government's official web portal to all federal, state and local government web resources and services.